createdAt,value
2018-04-21T00:02:54.409Z,20.56
2018-04-21T00:07:55.736Z,20.61
2018-04-21T00:12:57.770Z,20.55
2018-04-21T00:17:59.092Z,20.50
2018-04-21T00:23:00.446Z,20.55
2018-04-21T00:28:01.782Z,20.62
2018-04-21T00:33:03.122Z,20.68
2018-04-21T00:38:07.207Z,20.53
2018-04-21T00:43:08.530Z,20.28
2018-04-21T00:48:09.846Z,20.13
2018-04-21T00:53:11.223Z,20.07
2018-04-21T00:58:13.298Z,20.03
2018-04-21T01:03:14.737Z,20.06
2018-04-21T01:08:16.235Z,20.17
2018-04-21T01:13:17.866Z,20.32
2018-04-21T01:18:19.438Z,20.20
2018-04-21T01:23:20.747Z,20.02
2018-04-21T01:28:22.052Z,19.90
2018-04-21T01:33:23.567Z,19.68
2018-04-21T01:38:24.925Z,19.55
2018-04-21T01:43:26.275Z,19.45
2018-04-21T01:48:27.590Z,19.32
2018-04-21T01:53:28.937Z,19.23
2018-04-21T01:58:31.008Z,19.23
2018-04-21T02:03:32.319Z,19.10
2018-04-21T02:08:33.639Z,19.06
2018-04-21T02:13:34.958Z,19.00
2018-04-21T02:18:36.267Z,18.78
2018-04-21T02:23:37.642Z,18.78
2018-04-21T02:28:38.967Z,18.71
2018-04-21T02:33:40.310Z,18.53
2018-04-21T02:38:41.636Z,18.46
2018-04-21T02:43:43.007Z,18.41
2018-04-21T02:48:44.309Z,18.35
2018-04-21T02:53:45.617Z,18.20
2018-04-21T02:58:47.027Z,18.16
2018-04-21T03:03:49.081Z,18.12
2018-04-21T03:08:50.397Z,17.96
2018-04-21T03:13:51.713Z,18.00
2018-04-21T03:18:53.754Z,17.91
2018-04-21T03:23:55.135Z,17.83
2018-04-21T03:28:56.471Z,17.84
2018-04-21T03:33:57.805Z,17.76
2018-04-21T03:38:59.114Z,17.80
2018-04-21T03:44:00.563Z,17.55
2018-04-21T03:49:01.948Z,17.51
2018-04-21T03:54:03.391Z,17.31
2018-04-21T03:59:04.781Z,17.27
2018-04-21T04:04:06.133Z,17.09
2018-04-21T04:09:07.454Z,16.96
2018-04-21T04:14:27.560Z,16.82
2018-04-21T04:25:30.873Z,16.50
2018-04-21T04:30:32.192Z,16.55
2018-04-21T04:35:33.626Z,16.59
2018-04-21T04:40:35.663Z,16.72
2018-04-21T04:45:36.974Z,16.73
2018-04-21T04:50:39.301Z,16.80
2018-04-21T04:55:41.761Z,16.85
2018-04-21T05:00:43.153Z,16.90
2018-04-21T05:05:45.592Z,17.17
2018-04-21T05:10:46.885Z,17.20
2018-04-21T05:15:48.369Z,17.21
2018-04-21T05:20:49.723Z,17.35
2018-04-21T05:25:51.034Z,17.47
2018-04-21T05:30:53.204Z,17.26
2018-04-21T05:35:55.006Z,17.32
2018-04-21T05:40:56.330Z,17.37
2018-04-21T05:45:58.349Z,17.47
2018-04-21T05:50:59.646Z,17.59
2018-04-21T05:56:01.014Z,17.64
2018-04-21T06:01:03.109Z,17.64
2018-04-21T06:06:05.145Z,17.65
2018-04-21T06:11:06.454Z,17.60
2018-04-21T06:16:07.789Z,17.83
2018-04-21T06:21:09.090Z,17.92
2018-04-21T06:26:11.174Z,17.89
2018-04-21T06:31:12.473Z,18.21
2018-04-21T06:36:14.531Z,17.81
2018-04-21T06:41:15.864Z,17.56
2018-04-21T06:46:17.301Z,17.76
2018-04-21T06:51:18.804Z,17.59
2018-04-21T06:56:20.917Z,17.86
2018-04-21T07:01:22.250Z,18.03
2018-04-21T07:06:24.294Z,18.16
2018-04-21T07:11:25.601Z,18.13
2018-04-21T07:16:26.917Z,18.31
2018-04-21T07:21:28.242Z,18.14
2018-04-21T07:26:30.212Z,18.53
2018-04-21T07:31:31.513Z,18.41
2018-04-21T07:36:33.561Z,18.74
2018-04-21T07:41:34.898Z,18.78
2018-04-21T07:46:36.441Z,18.90
2018-04-21T07:51:37.819Z,18.96
2018-04-21T07:56:39.178Z,19.26
2018-04-21T08:01:40.493Z,19.29
2018-04-21T08:06:41.817Z,19.14
2018-04-21T08:11:43.148Z,19.30
2018-04-21T08:16:45.245Z,19.34
2018-04-21T08:21:46.603Z,19.50
2018-04-21T08:26:47.930Z,19.94
2018-04-21T08:31:49.249Z,20.12
2018-04-21T08:36:50.565Z,20.10
2018-04-21T08:41:51.888Z,19.87
2018-04-21T08:46:53.189Z,20.05
2018-04-21T08:51:55.270Z,19.99
2018-04-21T08:56:56.608Z,20.04
2018-04-21T09:01:57.928Z,20.14
2018-04-21T09:06:59.261Z,20.53
2018-04-21T09:12:00.636Z,20.74
2018-04-21T09:17:02.205Z,20.74
2018-04-21T09:22:03.574Z,20.61
2018-04-21T09:27:04.929Z,20.92
2018-04-21T09:32:07.058Z,21.02
2018-04-21T09:37:08.395Z,21.22
2018-04-21T09:42:09.718Z,21.46
2018-04-21T09:47:11.792Z,21.29
2018-04-21T09:52:13.124Z,21.33
2018-04-21T09:57:21.421Z,21.54
2018-04-21T10:02:22.734Z,21.95
2018-04-21T10:07:24.083Z,22.13
2018-04-21T10:12:25.404Z,21.85
2018-04-21T10:17:26.754Z,21.67
2018-04-21T10:22:28.110Z,21.87
2018-04-21T10:27:29.445Z,21.84
2018-04-21T10:32:30.750Z,21.90
2018-04-21T10:37:32.404Z,21.81
2018-04-21T10:42:33.885Z,22.04
2018-04-21T10:47:35.945Z,22.09
2018-04-21T10:52:37.302Z,22.37
2018-04-21T10:57:38.634Z,22.49
2018-04-21T11:02:39.983Z,22.54
2018-04-21T11:07:41.302Z,22.43
2018-04-21T11:12:42.640Z,22.57
2018-04-21T11:17:44.726Z,22.71
2018-04-21T11:22:46.045Z,22.73
2018-04-21T11:27:47.367Z,22.62
2018-04-21T11:32:48.808Z,22.81
2018-04-21T11:37:50.893Z,23.14
2018-04-21T11:42:52.259Z,23.19
2018-04-21T11:47:53.589Z,23.14
2018-04-21T11:52:55.666Z,23.09
2018-04-21T11:57:56.989Z,23.12
2018-04-21T12:02:59.042Z,23.50
2018-04-21T12:08:00.378Z,23.62
2018-04-21T12:13:01.766Z,23.44
2018-04-21T12:18:03.077Z,23.32
2018-04-21T12:23:05.146Z,23.39
2018-04-21T12:28:06.453Z,23.64
2018-04-21T12:33:07.778Z,23.67
2018-04-21T12:38:09.120Z,23.80
2018-04-21T12:43:10.439Z,24.05
2018-04-21T12:48:12.512Z,23.95
2018-04-21T12:53:13.841Z,24.10
2018-04-21T12:58:15.153Z,23.65
2018-04-21T13:03:16.478Z,23.82
2018-04-21T13:08:17.822Z,24.04
2018-04-21T13:13:19.197Z,23.96
2018-04-21T13:18:20.552Z,23.93
2018-04-21T13:23:21.844Z,24.28
2018-04-21T13:28:23.159Z,24.22
2018-04-21T13:33:24.518Z,24.25
2018-04-21T13:38:25.821Z,24.11
2018-04-21T13:43:27.870Z,24.21
2018-04-21T13:48:29.202Z,24.31
2018-04-21T13:53:30.538Z,24.32
2018-04-21T13:58:31.858Z,24.49
2018-04-21T14:03:33.198Z,24.34
2018-04-21T14:08:35.270Z,24.41
2018-04-21T14:13:36.605Z,24.52
2018-04-21T14:18:37.908Z,24.47
2018-04-21T14:23:39.215Z,24.31
2018-04-21T14:28:40.571Z,24.58
2018-04-21T14:33:41.833Z,24.46
2018-04-21T14:38:43.158Z,24.41
2018-04-21T14:43:44.488Z,24.28
2018-04-21T14:48:45.802Z,24.84
2018-04-21T14:53:47.154Z,24.96
2018-04-21T14:58:48.450Z,24.74
2018-04-21T15:03:49.758Z,24.88
2018-04-21T15:08:51.061Z,24.85
2018-04-21T15:13:53.097Z,24.68
2018-04-21T15:18:54.407Z,24.70
2018-04-21T15:23:55.733Z,24.61
2018-04-21T15:28:57.033Z,24.58
2018-04-21T15:33:58.498Z,24.77
2018-04-21T15:38:59.821Z,25.12
2018-04-21T15:44:01.905Z,25.23
2018-04-21T15:49:03.321Z,25.01
2018-04-21T15:54:05.385Z,25.04
2018-04-21T15:59:06.692Z,24.92
2018-04-21T16:04:08.118Z,25.21
2018-04-21T16:09:10.357Z,25.16
2018-04-21T16:14:11.742Z,25.02
2018-04-21T16:19:13.070Z,24.73
2018-04-21T16:24:14.554Z,24.48
2018-04-21T16:29:15.886Z,24.75
2018-04-21T16:34:17.942Z,24.46
2018-04-21T16:39:19.291Z,24.16
2018-04-21T16:44:20.601Z,24.00
2018-04-21T16:49:21.891Z,23.90
2018-04-21T16:54:23.232Z,23.79
2018-04-21T16:59:24.547Z,23.73
2018-04-21T17:04:25.898Z,23.50
2018-04-21T17:09:27.207Z,23.23
2018-04-21T17:14:28.547Z,23.02
2018-04-21T17:19:29.876Z,23.07
2018-04-21T17:24:31.194Z,22.97
2018-04-21T17:29:32.507Z,22.87
2018-04-21T17:34:34.544Z,22.72
2018-04-21T17:39:35.880Z,22.40
2018-04-21T17:44:37.201Z,22.31
2018-04-21T17:49:38.497Z,22.05
2018-04-21T17:54:39.825Z,21.92
2018-04-21T17:59:41.133Z,21.62
2018-04-21T18:04:42.433Z,21.48
2018-04-21T18:09:43.742Z,21.36
2018-04-21T18:14:45.049Z,20.98
2018-04-21T18:19:46.345Z,20.80
2018-04-21T18:24:47.670Z,20.80
2018-04-21T18:29:50.102Z,20.67
2018-04-21T18:34:51.487Z,20.49
2018-04-21T18:39:52.869Z,20.27
2018-04-21T18:44:54.941Z,20.01
2018-04-21T18:49:56.686Z,19.73
2018-04-21T18:54:58.037Z,19.75
2018-04-21T18:59:59.712Z,19.58
2018-04-21T19:05:01.190Z,19.65
2018-04-21T19:10:02.566Z,19.51
2018-04-21T19:15:03.884Z,19.30
2018-04-21T19:20:05.195Z,19.02
2018-04-21T19:25:06.511Z,18.94
2018-04-21T19:30:08.547Z,18.89
2018-04-21T19:35:09.853Z,18.84
2018-04-21T19:40:11.149Z,18.82
2018-04-21T19:45:12.482Z,18.67
2018-04-21T19:50:14.535Z,18.59
2018-04-21T19:55:15.870Z,18.58
2018-04-21T20:00:17.925Z,18.49
2018-04-21T20:05:19.230Z,18.45
2018-04-21T20:10:20.566Z,18.47
2018-04-21T20:15:22.644Z,18.17
2018-04-21T20:20:23.967Z,18.26
2018-04-21T20:25:26.020Z,18.26
2018-04-21T20:30:27.370Z,18.17
2018-04-21T20:35:28.698Z,18.01
2018-04-21T20:40:30.189Z,18.00
2018-04-21T20:45:31.489Z,17.88
2018-04-21T20:50:32.830Z,17.89
2018-04-21T20:55:34.141Z,17.84
2018-04-21T21:00:35.454Z,17.81
2018-04-21T21:05:36.788Z,17.96
2018-04-21T21:10:38.837Z,17.68
2018-04-21T21:15:40.160Z,17.63
2018-04-21T21:20:41.457Z,17.70
2018-04-21T21:25:42.792Z,17.67
2018-04-21T21:30:44.089Z,17.60
2018-04-21T21:35:45.397Z,17.55
2018-04-21T21:40:46.716Z,17.33
2018-04-21T21:45:48.023Z,17.09
2018-04-21T21:50:50.062Z,17.02
2018-04-21T21:55:51.393Z,16.75
2018-04-21T22:00:52.733Z,16.87
2018-04-21T22:05:54.065Z,16.71
2018-04-21T22:10:55.372Z,16.84
2018-04-21T22:15:57.470Z,16.75
2018-04-21T22:20:58.813Z,16.51
2018-04-21T22:26:00.110Z,16.48
2018-04-21T22:31:01.453Z,16.43
2018-04-21T22:36:02.840Z,16.44
2018-04-21T22:41:04.902Z,16.30
2018-04-21T22:46:06.203Z,16.19
2018-04-21T22:51:07.518Z,15.72
2018-04-21T22:56:08.829Z,15.71
2018-04-21T23:01:10.157Z,15.59
2018-04-21T23:06:11.510Z,15.55
2018-04-21T23:11:12.810Z,15.37
2018-04-21T23:16:14.168Z,15.49
2018-04-21T23:21:16.222Z,15.61
2018-04-21T23:26:17.555Z,15.45
2018-04-21T23:31:18.877Z,15.31
2018-04-21T23:36:20.191Z,15.25
2018-04-21T23:41:21.506Z,15.11
2018-04-21T23:46:22.802Z,15.08
2018-04-21T23:51:24.105Z,15.06
2018-04-21T23:56:25.406Z,15.13
